Latest Coastal Weather Observations for Low Head

IDV60701

Issued at 5:45 pm EST Thursday 18 September 2014 (issued every 10 minutes, with the page automatically refreshed every 10 minutes)

About coastal observations | Map of coastal stations | Coastal observations for VIC | Marine services | Other Formats
Station Details ID: 091293 Name: LOW HEAD Lat: -41.05 Lon: 146.79 Height: 3.0 m
Data from the previous 72 hours. | See also: Recent months at Low Head
Date/Time
EST
Temp

°C
Wind Pressure Rain
since 9am
mm
Weather Cloud Vis
km
Sea
Height
m
Swell
Dir
 
Speed
knots
Gust
knots
hPa Trend Height
m
Period
s
Dir
18/05:30pm 12.9 WSW 20 26 1016.8 - 0.0 - - - - - - -
18/05:00pm 12.9 W 21 27 1016.4 - 0.0 - - - - - - -
18/04:30pm 13.1 WSW 23 27 1016.1 - 0.0 - - - - - - -
18/04:00pm 13.0 W 26 30 1015.6 - 0.0 - - - - - - -
18/03:30pm 13.9 W 22 26 1015.7 - 0.0 - - - - - - -
18/03:00pm 14.2 WSW 22 26 1015.6 R 0.0 Fine Mostly cloudy 20 1 1.0 3 -
18/02:44pm 14.1 WSW 20 24 1015.5 - 0.0 - - - - - - -
18/02:30pm 13.7 W 17 21 1015.7 - 0.0 - - - - - - -
18/02:00pm 14.2 W 14 17 1015.9 - 0.0 - - - - - - -
18/01:30pm 13.6 WSW 17 20 1016.0 - 0.0 - - - - - - -
18/01:00pm 13.3 W 16 19 1015.9 - 0.0 - - - - - - -
18/12:30pm 13.1 W 18 22 1016.1 - 0.0 - - - - - - -
18/12:00pm 13.9 WNW 16 19 1016.3 - 0.0 - - - - - - -
18/11:30am 12.9 W 17 19 1016.5 - 0.0 - - - - - - -
18/11:00am 12.4 W 16 20 1016.8 - 0.0 - - - - - - -
18/10:30am 12.1 W 12 15 1016.9 - 0.0 - - - - - - -
18/10:00am 11.5 WSW 13 17 1016.7 - 0.0 - - - - - - -
18/09:30am 10.7 WSW 13 16 1016.7 - 0.0 - - - - - - -
18/09:00am 10.0 WSW 13 15 1016.4 F 0.2 Fine Mostly cloudy 25 1 1.0 3 NW
18/08:30am 9.8 WSW 12 14 1016.1 - 0.2 - - - - - - -
18/08:00am 10.0 WSW 13 15 1015.9 - 0.2 - - - - - - -
18/07:30am 9.8 W 14 16 1015.7 - 0.2 - - - - - - -
18/07:00am 8.9 WSW 8 11 1015.2 - 0.2 - - - - - - -
18/06:30am 8.8 WSW 10 13 1015.0 - 0.2 - - - - - - -
18/06:00am 8.8 W 8 9 1014.5 F 0.2 Fine Mostly cloudy 25 <0.5 0.3 3 NW
18/05:30am 8.9 WSW 9 11 1014.2 - 0.2 - - - - - - -
18/05:00am 9.4 WSW 14 17 1013.6 - 0.2 - - - - - - -
18/04:30am 9.2 WSW 12 14 1013.2 - 0.2 - - - - - - -
18/04:00am 9.3 WSW 18 22 1012.7 - 0.2 - - - - - - -
18/03:30am 9.1 W 18 21 1012.3 - 0.2 - - - - - - -
18/03:00am 9.0 WSW 17 21 1011.8 - 0.2 - - - - - - -
18/02:30am 8.9 WSW 17 20 1011.7 - 0.2 - - - - - - -
18/02:00am 9.0 WSW 16 17 1011.7 - 0.2 - - - - - - -
18/01:30am 8.5 WSW 14 18 1011.6 - 0.2 - - - - - - -
18/01:00am 7.9 WSW 11 14 1011.6 - 0.2 - - - - - - -
18/12:30am 8.2 W 10 13 1011.9 - 0.2 - - - - - - -
18/12:00am 7.6 WSW 9 11 1011.6 - 0.2 - - - - - - -
 
Date/Time
EST
Temp

°C
Wind Pressure Rain
since 9am
mm
Weather Cloud Vis
km
Sea
Height
m
Swell
Dir
 
Speed
knots
Gust
knots
hPa Trend Height
m
Period
s
Dir
17/11:30pm 7.7 WSW 12 15 1011.4 - 0.2 - - - - - - -
17/11:00pm 7.7 WSW 14 17 1010.9 - 0.2 - - - - - - -
17/10:30pm 7.5 SW 13 16 1011.3 - 0.2 - - - - - - -
17/10:00pm 7.4 SSW 10 16 1010.9 - 0.2 - - - - - - -
17/09:30pm 8.1 W 16 21 1010.3 - 0.2 - - - - - - -
17/09:00pm 8.6 W 20 23 1010.3 - 0.2 - - - - - - -
17/08:30pm 8.3 WSW 13 17 1010.3 - 0.2 - - - - - - -
17/08:00pm 8.7 W 20 24 1010.1 - 0.2 - - - - - - -
17/07:30pm 9.0 W 22 26 1009.9 - 0.2 - - - - - - -
17/07:00pm 9.0 W 20 23 1009.2 - 0.2 - - - - - - -
17/06:30pm 9.4 WSW 24 29 1008.5 - 0.2 - - - - - - -
17/06:00pm 9.5 WSW 25 30 1008.1 - 0.2 - - - - - - -
17/05:30pm 9.9 WSW 24 28 1007.4 - 0.2 - - - - - - -
17/05:00pm 10.3 WSW 25 32 1006.4 - 0.2 - - - - - - -
17/04:30pm 10.8 WSW 23 29 1005.8 - 0.2 - - - - - - -
17/04:20pm 10.9 WSW 18 28 1005.5 - 0.2 - - - - - - -
17/04:00pm 10.5 WSW 21 27 1005.4 - 0.2 - - - - - - -
17/03:30pm 11.0 WSW 19 24 1005.0 - 0.2 - - - - - - -
17/03:00pm 10.7 WSW 27 33 1004.4 R 0.2 Distant precip. Mostly cloudy 20 2 1.5 3 NW
17/02:30pm 10.7 W 29 34 1004.4 - 0.2 - - - - - - -
17/02:00pm 10.5 W 26 31 1004.1 - 0.2 - - - - - - -
17/01:30pm 11.3 W 27 32 1004.0 - 0.2 - - - - - - -
17/01:00pm 11.3 W 25 30 1004.1 - 0.2 - - - - - - -
17/12:48pm 11.1 W 20 27 1004.0 - 0.2 - - - - - - -
17/12:30pm 11.1 WSW 24 31 1004.2 - 0.2 - - - - - - -
17/12:20pm 11.2 WSW 26 33 1004.0 - 0.2 - - - - - - -
17/12:00pm 11.0 W 25 31 1004.5 - 0.2 - - - - - - -
17/11:30am 11.3 W 20 23 1004.6 - 0.2 - - - - - - -
17/11:00am 10.9 W 21 25 1005.0 - 0.0 - - - - - - -
17/10:30am 10.8 W 21 26 1005.1 - 0.0 - - - - - - -
17/10:00am 10.9 WNW 21 24 1005.3 - 0.0 - - - - - - -
17/09:30am 11.4 W 22 26 1005.6 - 0.0 - - - - - - -
17/09:00am 11.6 W 19 23 1005.8 F 14.2 Fine Partly cloudy 25 2 1.5 3 NW
17/08:30am 11.2 W 19 22 1006.1 - 14.2 - - - - - - -
17/08:00am 10.9 W 17 21 1006.0 - 14.2 - - - - - - -
17/07:30am 11.2 W 20 22 1006.0 - 14.2 - - - - - - -
17/07:00am 10.6 W 14 17 1006.2 - 14.2 - - - - - - -
17/06:30am 10.3 W 10 12 1006.4 - 14.2 - - - - - - -
17/06:00am 9.9 W 9 11 1006.7 F 14.2 Fine Mostly cloudy 20 <0.5 0.5 3 NW
17/05:30am 9.8 W 10 11 1006.9 - 14.2 - - - - - - -
17/05:00am 9.7 W 8 11 1007.1 - 14.2 - - - - - - -
17/04:30am 9.4 W 6 8 1007.2 - 14.2 - - - - - - -
17/04:00am 9.3 W 10 11 1007.4 - 14.2 - - - - - - -
17/03:30am 9.3 W 10 13 1007.6 - 14.2 - - - - - - -
17/03:00am 9.5 W 12 15 1007.8 - 14.2 - - - - - - -
17/02:30am 9.7 WSW 9 12 1008.0 - 14.2 - - - - - - -
17/02:00am 10.0 W 11 13 1008.2 - 14.2 - - - - - - -
17/01:30am 9.8 W 10 11 1008.5 - 14.2 - - - - - - -
17/01:00am 8.8 SW 1 5 1008.7 - 14.2 - - - - - - -
17/12:30am 8.2 S 2 5 1008.8 - 14.2 - - - - - - -
17/12:00am 8.9 CALM 0 0 1008.8 - 14.2 - - - - - - -
 
Date/Time
EST
Temp

°C
Wind Pressure Rain
since 9am
mm
Weather Cloud Vis
km
Sea
Height
m
Swell
Dir
 
Speed
knots
Gust
knots
hPa Trend Height
m
Period
s
Dir
16/11:30pm 9.2 S 5 6 1009.1 - 14.2 - - - - - - -
16/11:00pm 9.6 WSW 6 8 1009.4 - 14.2 - - - - - - -
16/10:30pm 9.6 W 9 11 1009.5 - 14.2 - - - - - - -
16/10:00pm 9.8 W 9 11 1009.7 - 14.2 - - - - - - -
16/09:30pm 10.0 W 8 10 1009.7 - 14.2 - - - - - - -
16/09:00pm 9.5 SW 7 10 1009.7 - 14.2 - - - - - - -
16/08:30pm 9.4 SSW 8 10 1009.7 - 14.2 - - - - - - -
16/08:00pm 9.4 SSW 8 9 1009.8 - 14.2 - - - - - - -
16/07:30pm 9.1 SSE 5 7 1009.7 - 14.2 - - - - - - -
16/07:00pm 9.1 SSE 9 11 1009.6 - 14.2 - - - - - - -
16/06:30pm 9.2 SSE 10 13 1009.5 - 14.2 - - - - - - -
16/06:00pm 9.4 S 13 17 1009.5 - 14.2 - - - - - - -
16/05:30pm 9.4 SSE 12 14 1009.4 - 14.2 - - - - - - -
16/05:00pm 9.4 SSE 12 15 1009.5 - 14.2 - - - - - - -
16/04:30pm 9.2 SE 8 11 1009.3 - 14.0 - - - - - - -
16/04:00pm 9.6 SSE 8 11 1009.7 - 13.0 - - - - - - -
16/03:30pm 9.9 S 9 11 1009.9 - 10.4 - - - - - - -
16/03:00pm 9.6 S 7 8 1010.0 R 9.4 Showers Cloudy 10 <0.1 0.3 3 NW
16/02:30pm 9.6 S 8 10 1010.2 - 7.6 - - - - - - -
16/02:00pm 10.1 S 9 11 1010.0 - 5.6 - - - - - - -
16/01:30pm 9.7 S 8 10 1010.1 - 5.2 - - - - - - -
16/01:00pm 9.6 SSE 9 11 1010.1 - 5.0 - - - - - - -
16/12:30pm 9.7 SSE 7 11 1010.4 - 4.2 - - - - - - -
16/12:00pm 9.7 SE 7 9 1010.7 - 1.8 - - - - - - -
16/11:30am 9.9 SSE 7 8 1011.2 - 1.0 - - - - - - -
16/11:00am 9.9 SSE 9 13 1011.6 - 0.4 - - - - - - -
16/10:30am 9.7 SSE 11 14 1011.9 - 0.4 - - - - - - -
16/10:00am 9.0 SSE 12 15 1012.2 - 0.4 - - - - - - -
16/09:30am 8.8 SSE 12 17 1012.5 - 0.2 - - - - - - -
16/09:00am 8.4 SSE 10 14 1012.8 F 2.8 Showers Cloudy 10 <0.1 0.3 3 NW
16/08:30am 8.2 SSE 9 12 1013.2 - 2.2 - - - - - - -
16/08:00am 8.4 SSE 9 11 1013.2 - 1.2 - - - - - - -
16/07:30am 8.6 SSE 9 11 1013.0 - 0.6 - - - - - - -
16/07:00am 8.6 SSE 9 13 1012.9 - 0.2 - - - - - - -
16/06:30am 8.6 SSE 10 13 1012.8 - 0.0 - - - - - - -
16/06:00am 8.7 SSE 9 11 1012.9 F 0.0 Distant precip. Cloudy 10 <0.1 0.3 3 -
16/05:30am 8.9 SSE 8 10 1013.1 - 0.0 - - - - - - -
16/05:00am 9.3 SSE 7 9 1013.0 - 0.0 - - - - - - -
16/04:30am 9.6 SSE 7 9 1013.1 - 0.0 - - - - - - -
16/04:00am 9.6 SE 6 9 1013.0 - 0.0 - - - - - - -
16/03:30am 9.8 ESE 6 9 1013.0 - 0.0 - - - - - - -
16/03:00am 9.8 ESE 7 10 1013.3 - 0.0 - - - - - - -
16/02:30am 9.8 E 9 12 1013.4 - 0.0 - - - - - - -
16/02:00am 9.9 E 10 13 1013.7 - 0.0 - - - - - - -
16/01:30am 9.9 E 10 13 1014.1 - 0.0 - - - - - - -
16/01:00am 10.0 E 11 14 1014.6 - 0.0 - - - - - - -
16/12:30am 10.0 E 11 14 1014.8 - 0.0 - - - - - - -
16/12:00am 10.2 E 13 16 1014.8 - 0.0 - - - - - - -
 
Date/Time
EST
Temp

°C
Wind Pressure Rain
since 9am
mm
Weather Cloud Vis
km
Sea
Height
m
Swell
Dir
 
Speed
knots
Gust
knots
hPa Trend Height
m
Period
s
Dir
15/11:30pm 10.4 E 15 18 1014.9 - 0.0 - - - - - - -
15/11:00pm 10.3 E 14 18 1015.3 - 0.0 - - - - - - -
15/10:30pm 10.4 E 13 16 1015.5 - 0.0 - - - - - - -
15/10:00pm 10.5 E 15 19 1015.7 - 0.0 - - - - - - -
15/09:30pm 10.8 E 15 18 1016.0 - 0.0 - - - - - - -
15/09:00pm 10.9 E 15 17 1016.2 - 0.0 - - - - - - -
15/08:30pm 11.3 E 15 19 1016.2 - 0.0 - - - - - - -
15/08:00pm 11.6 ENE 15 19 1016.3 - 0.0 - - - - - - -
15/07:30pm 11.6 ENE 13 16 1016.2 - 0.0 - - - - - - -
15/07:00pm 11.5 E 12 14 1015.8 - 0.0 - - - - - - -
15/06:30pm 12.0 ENE 15 17 1015.6 - 0.0 - - - - - - -
15/06:00pm 12.2 NE 13 15 1015.6 - 0.0 - - - - - - -

Other Formats:

Comma delimited format used in spreadsheet applications
http://www.bom.gov.au/fwo/IDV60701/IDV60701.95964.axf

JavaScript Object Notation format (JSON) in row-major order
http://www.bom.gov.au/fwo/IDV60701/IDV60701.95964.json